createdAt,value
2023-04-17T00:00:08.467Z,71.08
2023-04-17T00:02:40.718Z,71.18
2023-04-17T00:05:09.575Z,71.26
2023-04-17T00:07:41.619Z,71.40
2023-04-17T00:10:10.292Z,71.65
2023-04-17T00:12:38.811Z,71.55
2023-04-17T00:15:08.046Z,71.40
2023-04-17T00:17:37.915Z,71.36
2023-04-17T00:20:12.676Z,71.34
2023-04-17T00:22:41.035Z,71.23
2023-04-17T00:25:13.138Z,71.15
2023-04-17T00:27:42.924Z,70.98
2023-04-17T00:30:11.487Z,70.79
2023-04-17T00:32:41.653Z,70.64
2023-04-17T00:35:10.187Z,70.64
2023-04-17T00:37:38.427Z,70.74
2023-04-17T00:40:07.188Z,70.36
2023-04-17T00:42:36.151Z,70.47
2023-04-17T00:45:05.625Z,71.00
2023-04-17T00:47:33.804Z,71.12
2023-04-17T00:50:02.996Z,70.74
2023-04-17T00:52:31.655Z,70.92
2023-04-17T00:55:00.592Z,71.05
2023-04-17T00:57:28.979Z,70.78
2023-04-17T00:59:57.852Z,70.49
2023-04-17T01:02:27.040Z,70.25
2023-04-17T01:04:55.975Z,70.13
2023-04-17T01:07:24.631Z,69.86
2023-04-17T01:09:52.884Z,69.90
2023-04-17T01:12:24.755Z,69.89
2023-04-17T01:14:54.005Z,69.80
2023-04-17T01:17:22.323Z,69.37
2023-04-17T01:19:50.927Z,69.10
2023-04-17T01:22:22.273Z,68.75
2023-04-17T01:24:52.344Z,68.98
2023-04-17T01:27:22.808Z,69.27
2023-04-17T01:29:51.073Z,69.41
2023-04-17T01:32:19.748Z,69.34
2023-04-17T01:34:47.985Z,69.47
2023-04-17T01:37:16.401Z,69.12
2023-04-17T01:39:44.666Z,68.54
2023-04-17T01:42:12.903Z,68.58
2023-04-17T01:44:41.010Z,68.76
2023-04-17T01:47:09.256Z,68.97
2023-04-17T01:49:37.505Z,68.97
2023-04-17T01:52:06.398Z,69.20
2023-04-17T01:54:35.681Z,69.41
2023-04-17T01:57:03.964Z,69.58
2023-04-17T01:59:32.997Z,69.43
2023-04-17T02:02:01.632Z,69.30
2023-04-17T02:04:30.253Z,69.11
2023-04-17T02:06:58.438Z,69.23
2023-04-17T02:09:27.219Z,68.99
2023-04-17T02:11:56.412Z,68.61
2023-04-17T02:14:25.074Z,68.77
2023-04-17T02:16:53.979Z,68.81
2023-04-17T02:19:23.117Z,68.46
2023-04-17T02:21:51.470Z,68.58
2023-04-17T02:24:19.506Z,68.35
2023-04-17T02:26:47.801Z,68.61
2023-04-17T02:29:16.069Z,68.79
2023-04-17T02:31:44.270Z,68.44
2023-04-17T02:34:12.858Z,68.22
2023-04-17T02:36:41.693Z,68.36
2023-04-17T02:39:10.265Z,68.07
2023-04-17T02:41:41.155Z,68.02
2023-04-17T02:44:09.667Z,68.14
2023-04-17T02:46:38.318Z,68.17
2023-04-17T02:49:07.754Z,68.17
2023-04-17T02:51:36.213Z,68.29
2023-04-17T02:54:04.669Z,68.52
2023-04-17T02:56:33.387Z,68.49
2023-04-17T02:59:01.480Z,68.49
2023-04-17T03:01:30.097Z,68.64
2023-04-17T03:03:58.583Z,68.65
2023-04-17T03:06:27.514Z,68.77
2023-04-17T03:08:55.952Z,68.52
2023-04-17T03:11:24.176Z,68.49
2023-04-17T03:13:52.601Z,68.96
2023-04-17T03:16:20.820Z,69.38
2023-04-17T03:18:49.065Z,69.16
2023-04-17T03:21:17.315Z,69.18
2023-04-17T03:23:45.534Z,68.71
2023-04-17T03:26:14.414Z,69.46
2023-04-17T03:28:43.089Z,69.51
2023-04-17T03:31:11.364Z,69.93
2023-04-17T03:33:39.927Z,69.69
2023-04-17T03:36:09.108Z,69.95
2023-04-17T03:38:37.885Z,69.98
2023-04-17T03:41:07.200Z,70.32
2023-04-17T03:43:35.402Z,70.77
2023-04-17T03:46:03.530Z,71.29
2023-04-17T03:48:32.035Z,71.12
2023-04-17T03:51:00.289Z,71.03
2023-04-17T03:53:31.095Z,70.83
2023-04-17T03:56:01.583Z,71.15
2023-04-17T03:58:33.181Z,71.32
2023-04-17T04:01:02.201Z,71.12
2023-04-17T04:03:32.881Z,71.37
2023-04-17T04:06:01.952Z,71.04
2023-04-17T04:08:30.448Z,70.70
2023-04-17T04:11:00.237Z,71.05
2023-04-17T04:13:35.555Z,71.12
2023-04-17T04:16:04.520Z,71.19
2023-04-17T04:18:33.839Z,70.87
2023-04-17T04:21:02.495Z,71.12
2023-04-17T04:23:33.844Z,70.66
2023-04-17T04:26:02.234Z,70.05
2023-04-17T04:28:36.368Z,70.47
2023-04-17T04:31:04.721Z,70.90
2023-04-17T04:33:37.996Z,71.39
2023-04-17T04:36:06.460Z,71.42
2023-04-17T04:38:36.055Z,71.13
2023-04-17T04:41:20.115Z,70.44
2023-04-17T04:43:48.206Z,70.66
2023-04-17T04:46:16.564Z,70.98
2023-04-17T04:48:46.722Z,70.76
2023-04-17T04:51:15.027Z,70.28
2023-04-17T04:53:43.723Z,69.74
2023-04-17T04:56:13.076Z,69.74
2023-04-17T04:58:41.358Z,69.92
2023-04-17T05:01:11.507Z,69.76
2023-04-17T05:03:47.640Z,69.92
2023-04-17T05:06:22.335Z,69.79
2023-04-17T05:08:55.076Z,69.71
2023-04-17T05:11:23.322Z,69.25
2023-04-17T05:13:51.466Z,69.04
2023-04-17T05:16:24.477Z,68.79
2023-04-17T05:18:52.738Z,68.29
2023-04-17T05:21:29.810Z,68.27
2023-04-17T05:23:59.421Z,68.43
2023-04-17T05:26:29.340Z,68.22
2023-04-17T05:28:57.686Z,67.68
2023-04-17T05:31:28.033Z,67.63
2023-04-17T05:33:57.099Z,67.99
2023-04-17T05:36:27.542Z,67.83
2023-04-17T05:38:57.850Z,67.92
2023-04-17T05:41:31.048Z,67.93
2023-04-17T05:43:59.283Z,67.95
2023-04-17T05:46:28.883Z,68.05
2023-04-17T05:48:57.444Z,68.44
2023-04-17T05:51:26.627Z,68.26
2023-04-17T05:53:58.910Z,67.82
2023-04-17T05:56:27.293Z,67.65
2023-04-17T05:58:59.447Z,67.77
2023-04-17T06:01:30.261Z,67.85
2023-04-17T06:04:06.133Z,67.89
2023-04-17T06:06:35.028Z,67.49
2023-04-17T06:09:07.291Z,67.36
2023-04-17T06:11:35.674Z,67.58
2023-04-17T06:14:09.917Z,67.73
2023-04-17T06:16:38.684Z,67.60
2023-04-17T06:19:08.425Z,67.34
2023-04-17T06:21:41.643Z,67.09
2023-04-17T06:24:12.488Z,67.21
2023-04-17T06:26:49.021Z,67.24
2023-04-17T06:29:17.450Z,67.01
2023-04-17T06:31:46.672Z,66.49
2023-04-17T06:34:28.653Z,66.33
2023-04-17T06:37:01.112Z,66.12
2023-04-17T06:39:31.807Z,66.26
2023-04-17T06:42:02.605Z,65.66
2023-04-17T06:44:31.134Z,65.48
2023-04-17T06:47:05.474Z,65.52
2023-04-17T06:49:33.740Z,65.39
2023-04-17T06:52:02.120Z,65.18
2023-04-17T06:54:30.510Z,64.26
2023-04-17T06:56:58.791Z,64.12
2023-04-17T06:59:27.224Z,63.49
2023-04-17T07:01:55.683Z,63.10
2023-04-17T07:04:24.111Z,62.99
2023-04-17T07:06:52.333Z,63.25
2023-04-17T07:09:20.813Z,62.77
2023-04-17T07:11:49.085Z,62.71
2023-04-17T07:14:20.403Z,62.15
2023-04-17T07:16:48.843Z,62.38
2023-04-17T07:19:17.159Z,62.32
2023-04-17T07:21:45.327Z,62.03
2023-04-17T07:24:17.536Z,61.66
2023-04-17T07:26:46.925Z,61.51
2023-04-17T07:29:15.847Z,61.37
2023-04-17T07:31:44.371Z,60.86
2023-04-17T07:34:12.751Z,60.56
2023-04-17T07:36:44.324Z,60.93
2023-04-17T07:39:12.895Z,61.22
2023-04-17T07:41:41.494Z,61.20
2023-04-17T07:44:11.402Z,60.32
2023-04-17T07:46:39.859Z,59.76
2023-04-17T07:49:11.467Z,59.72
2023-04-17T07:51:41.703Z,59.43
2023-04-17T07:54:10.183Z,59.31
2023-04-17T07:56:38.614Z,58.57
2023-04-17T07:59:06.892Z,58.72
2023-04-17T08:01:35.877Z,58.78
2023-04-17T08:04:05.469Z,59.05
2023-04-17T08:06:34.225Z,58.59
2023-04-17T08:09:03.052Z,58.33
2023-04-17T08:11:33.069Z,57.79
2023-04-17T08:14:04.089Z,57.13
2023-04-17T08:16:33.650Z,56.77
2023-04-17T08:19:02.276Z,56.33
2023-04-17T08:21:31.380Z,56.34
2023-04-17T08:24:37.506Z,56.39
2023-04-17T08:27:17.595Z,56.27
2023-04-17T08:29:57.195Z,55.34
2023-04-17T08:32:28.561Z,54.60
2023-04-17T08:34:58.099Z,54.48
2023-04-17T08:37:28.353Z,54.26
2023-04-17T08:39:59.439Z,53.85
2023-04-17T08:42:27.700Z,53.67
2023-04-17T08:45:05.487Z,53.29
2023-04-17T08:47:37.110Z,53.19
2023-04-17T08:50:09.571Z,53.17
2023-04-17T08:52:46.590Z,52.57
2023-04-17T08:55:22.575Z,52.55
2023-04-17T08:58:04.406Z,52.86
2023-04-17T09:00:34.365Z,52.62
2023-04-17T09:03:05.784Z,52.62
2023-04-17T09:05:37.745Z,53.09
2023-04-17T09:08:24.394Z,53.37
2023-04-17T09:10:54.068Z,53.07
2023-04-17T09:13:25.230Z,52.74
2023-04-17T09:16:16.257Z,52.51
2023-04-17T09:18:49.594Z,52.43
2023-04-17T09:21:21.132Z,52.82
2023-04-17T09:23:56.314Z,52.33
2023-04-17T09:26:28.377Z,51.91
2023-04-17T09:29:11.300Z,50.53
2023-04-17T09:31:43.685Z,49.90
2023-04-17T09:34:17.068Z,50.43
2023-04-17T09:36:48.558Z,50.74
2023-04-17T09:39:24.606Z,50.55
2023-04-17T09:42:03.597Z,50.46
2023-04-17T09:44:40.647Z,50.20
2023-04-17T09:47:08.962Z,50.13
2023-04-17T09:49:45.492Z,50.13
2023-04-17T09:52:15.955Z,49.27
2023-04-17T09:54:44.622Z,48.90
2023-04-17T09:57:17.589Z,48.82
2023-04-17T09:59:53.186Z,48.59
2023-04-17T10:02:25.880Z,48.49
2023-04-17T10:05:00.210Z,47.95
2023-04-17T10:07:30.306Z,47.79
2023-04-17T10:10:01.235Z,47.55
2023-04-17T10:12:29.810Z,47.71
2023-04-17T10:14:58.285Z,48.05
2023-04-17T10:17:28.967Z,48.46
2023-04-17T10:20:17.682Z,48.34
2023-04-17T10:22:54.333Z,48.60
2023-04-17T10:25:22.823Z,48.29
2023-04-17T10:27:55.296Z,47.63
2023-04-17T10:30:24.782Z,47.70
2023-04-17T10:33:12.518Z,47.03
2023-04-17T10:35:40.897Z,46.72
2023-04-17T10:38:09.183Z,46.75
2023-04-17T10:40:38.779Z,46.66
2023-04-17T10:43:11.356Z,46.41
2023-04-17T10:45:55.088Z,45.73
2023-04-17T10:48:31.271Z,45.99
2023-04-17T10:51:01.009Z,45.52
2023-04-17T10:53:43.666Z,45.46
2023-04-17T10:56:31.288Z,45.22
2023-04-17T10:59:04.405Z,45.35
2023-04-17T11:01:48.709Z,45.55
2023-04-17T11:04:31.056Z,45.59
2023-04-17T11:07:00.459Z,45.86
2023-04-17T11:09:29.801Z,46.14
2023-04-17T11:11:59.806Z,46.05
2023-04-17T11:14:34.725Z,46.55
2023-04-17T11:17:03.275Z,46.40
2023-04-17T11:19:32.226Z,46.54
2023-04-17T11:22:04.231Z,46.13
2023-04-17T11:24:33.570Z,46.14
2023-04-17T11:27:06.975Z,45.86
2023-04-17T11:29:36.038Z,45.64
2023-04-17T11:32:04.967Z,45.22
2023-04-17T11:34:33.486Z,44.59
2023-04-17T11:37:16.794Z,44.83
2023-04-17T11:39:47.476Z,44.62
2023-04-17T11:42:26.970Z,44.29
2023-04-17T11:45:07.214Z,44.49
2023-04-17T11:47:35.849Z,44.30
2023-04-17T11:50:04.703Z,44.20
2023-04-17T11:52:33.219Z,43.80
2023-04-17T11:55:02.620Z,44.15
2023-04-17T11:57:43.487Z,44.39
2023-04-17T12:00:14.818Z,44.50
2023-04-17T12:02:47.424Z,44.44
2023-04-17T12:05:21.560Z,44.16
2023-04-17T12:08:04.590Z,43.82
2023-04-17T12:11:02.623Z,43.85
2023-04-17T12:13:35.698Z,43.63
2023-04-17T12:16:06.884Z,45.31
2023-04-17T12:18:35.161Z,47.68
2023-04-17T12:21:09.991Z,48.97
2023-04-17T12:23:38.909Z,49.19
2023-04-17T12:26:11.232Z,49.25
2023-04-17T12:28:50.203Z,49.35
2023-04-17T12:31:21.102Z,49.63
2023-04-17T12:33:52.726Z,49.08
2023-04-17T12:36:21.119Z,48.45
2023-04-17T12:38:49.474Z,48.06
2023-04-17T12:41:21.490Z,45.85
2023-04-17T12:43:49.929Z,43.89
2023-04-17T12:46:21.849Z,45.36
2023-04-17T12:48:55.885Z,46.34
2023-04-17T12:51:28.446Z,46.95
2023-04-17T12:54:00.698Z,46.50
2023-04-17T12:56:29.436Z,45.99
2023-04-17T12:59:02.891Z,45.51
2023-04-17T13:01:38.907Z,43.89
2023-04-17T13:04:07.877Z,44.57
2023-04-17T13:06:36.859Z,43.84
2023-04-17T13:09:05.102Z,41.78
2023-04-17T13:11:33.406Z,41.67
2023-04-17T13:14:01.674Z,41.92
2023-04-17T13:16:30.297Z,41.55
2023-04-17T13:18:58.861Z,41.38
2023-04-17T13:21:30.157Z,41.18
2023-04-17T13:24:01.661Z,40.82
2023-04-17T13:26:39.189Z,41.36
2023-04-17T13:29:32.384Z,41.43
2023-04-17T13:32:10.350Z,42.62
2023-04-17T13:34:43.328Z,44.24
2023-04-17T13:37:11.547Z,45.56
2023-04-17T13:39:39.708Z,45.65
2023-04-17T13:42:08.174Z,46.17
2023-04-17T13:44:39.867Z,46.44
2023-04-17T13:47:14.169Z,46.50
2023-04-17T13:49:42.549Z,46.89
2023-04-17T13:52:11.008Z,46.85
2023-04-17T13:54:41.328Z,47.14
2023-04-17T13:57:10.681Z,47.42
2023-04-17T13:59:39.010Z,47.47
2023-04-17T14:02:07.281Z,47.30
2023-04-17T14:04:38.300Z,47.12
2023-04-17T14:07:06.891Z,47.27
2023-04-17T14:09:35.253Z,47.53
2023-04-17T14:12:03.930Z,47.54
2023-04-17T14:14:33.172Z,47.53
2023-04-17T14:17:02.586Z,47.88
2023-04-17T14:19:32.240Z,47.72
2023-04-17T14:22:05.379Z,47.45
2023-04-17T14:24:34.250Z,47.25
2023-04-17T14:27:05.750Z,47.34
2023-04-17T14:29:34.564Z,47.17
2023-04-17T14:32:03.585Z,47.14
2023-04-17T14:34:31.852Z,46.76
2023-04-17T14:37:00.287Z,46.54
2023-04-17T14:39:33.158Z,47.05
2023-04-17T14:42:02.329Z,47.26
2023-04-17T14:44:31.238Z,47.64
2023-04-17T14:46:59.503Z,47.70
2023-04-17T14:49:30.905Z,47.94
2023-04-17T14:51:59.186Z,48.16
2023-04-17T14:54:27.393Z,48.52
2023-04-17T14:56:56.431Z,48.35
2023-04-17T14:59:26.637Z,48.23
2023-04-17T15:01:58.082Z,47.83
2023-04-17T15:04:27.434Z,47.78
2023-04-17T15:06:55.804Z,47.55
2023-04-17T15:09:26.752Z,47.76
2023-04-17T15:11:56.686Z,47.69
2023-04-17T15:14:26.637Z,47.63
2023-04-17T15:16:54.987Z,47.55
2023-04-17T15:19:23.357Z,47.52
2023-04-17T15:21:52.991Z,48.02
2023-04-17T15:24:21.292Z,48.28
2023-04-17T15:26:51.327Z,48.42
2023-04-17T15:29:19.770Z,48.38
2023-04-17T15:31:48.088Z,48.23
2023-04-17T15:34:16.252Z,48.35
2023-04-17T15:36:44.458Z,48.71
2023-04-17T15:39:12.812Z,49.11
2023-04-17T15:41:40.978Z,49.20
2023-04-17T15:44:09.192Z,49.66
2023-04-17T15:46:37.690Z,50.20
2023-04-17T15:49:09.245Z,50.42
2023-04-17T15:51:41.481Z,50.56
2023-04-17T15:54:12.127Z,50.61
2023-04-17T15:56:40.413Z,50.88
2023-04-17T15:59:08.579Z,51.35
2023-04-17T16:01:37.480Z,52.05
2023-04-17T16:04:06.124Z,52.74
2023-04-17T16:06:35.310Z,53.36
2023-04-17T16:09:04.179Z,53.93
2023-04-17T16:11:32.384Z,54.50
2023-04-17T16:14:00.556Z,54.76
2023-04-17T16:16:29.577Z,54.91
2023-04-17T16:18:57.949Z,55.09
2023-04-17T16:21:26.919Z,55.04
2023-04-17T16:23:55.554Z,54.88
2023-04-17T16:26:23.744Z,54.96
2023-04-17T16:28:51.914Z,54.83
2023-04-17T16:31:21.436Z,54.71
2023-04-17T16:33:49.547Z,54.71
2023-04-17T16:36:17.669Z,55.21
2023-04-17T16:38:45.840Z,55.58
2023-04-17T16:41:13.985Z,56.07
2023-04-17T16:43:42.754Z,56.36
2023-04-17T16:46:22.129Z,56.71
2023-04-17T16:48:56.864Z,57.04
2023-04-17T16:51:25.127Z,57.34
2023-04-17T16:53:53.530Z,57.53
2023-04-17T16:56:21.734Z,58.30
2023-04-17T16:58:50.037Z,58.79
2023-04-17T17:01:18.421Z,59.03
2023-04-17T17:03:46.729Z,59.41
2023-04-17T17:06:14.930Z,59.64
2023-04-17T17:08:46.800Z,60.10
2023-04-17T17:11:15.605Z,61.34
2023-04-17T17:13:50.932Z,62.09
2023-04-17T17:16:20.921Z,63.08
2023-04-17T17:18:49.238Z,64.19
2023-04-17T17:21:17.661Z,65.01
2023-04-17T17:23:45.852Z,65.39
2023-04-17T17:26:14.095Z,66.60
2023-04-17T17:28:42.708Z,67.36
2023-04-17T17:31:11.434Z,68.35
2023-04-17T17:33:39.533Z,69.19
2023-04-17T17:36:09.097Z,70.34
2023-04-17T17:38:37.973Z,71.62
2023-04-17T17:41:07.562Z,72.61
2023-04-17T17:43:37.658Z,73.39
2023-04-17T17:46:05.927Z,74.09
2023-04-17T17:48:35.080Z,75.12
2023-04-17T17:51:03.193Z,75.81
2023-04-17T17:53:32.506Z,76.01
2023-04-17T17:56:00.853Z,76.04
2023-04-17T17:58:29.355Z,75.99
2023-04-17T18:00:57.606Z,76.12
2023-04-17T18:03:26.104Z,76.39
2023-04-17T18:05:54.505Z,76.15
2023-04-17T18:08:22.788Z,75.57
2023-04-17T18:10:51.176Z,75.29
2023-04-17T18:13:19.499Z,74.41
2023-04-17T18:15:47.646Z,73.55
2023-04-17T18:18:15.966Z,72.92
2023-04-17T18:20:44.134Z,72.48
2023-04-17T18:23:12.256Z,71.98
2023-04-17T18:25:40.716Z,71.29
2023-04-17T18:28:08.894Z,70.74
2023-04-17T18:30:37.099Z,70.49
2023-04-17T18:33:05.456Z,70.62
2023-04-17T18:35:33.796Z,70.55
2023-04-17T18:38:02.078Z,71.08
2023-04-17T18:40:30.926Z,70.98
2023-04-17T18:42:59.288Z,70.94
2023-04-17T18:45:28.066Z,70.86
2023-04-17T18:47:56.731Z,71.04
2023-04-17T18:50:27.042Z,70.47
2023-04-17T18:52:55.229Z,69.98
2023-04-17T18:55:23.549Z,70.81
2023-04-17T18:57:51.827Z,71.50
2023-04-17T19:00:20.443Z,71.21
2023-04-17T19:02:48.685Z,70.91
2023-04-17T19:05:17.368Z,70.35
2023-04-17T19:07:45.695Z,69.94
2023-04-17T19:10:13.796Z,69.87
2023-04-17T19:12:43.324Z,70.10
2023-04-17T19:15:11.576Z,70.57
2023-04-17T19:17:41.175Z,70.97
2023-04-17T19:20:09.610Z,71.73
2023-04-17T19:22:37.991Z,72.45
2023-04-17T19:25:06.420Z,73.04
2023-04-17T19:27:35.014Z,73.93
2023-04-17T19:30:03.825Z,74.98
2023-04-17T19:32:32.432Z,77.42
2023-04-17T19:35:00.610Z,78.88
2023-04-17T19:37:29.231Z,79.83
2023-04-17T19:39:57.424Z,80.48
2023-04-17T19:42:25.801Z,81.36
2023-04-17T19:44:54.067Z,81.88
2023-04-17T19:47:24.191Z,81.51
2023-04-17T19:49:52.388Z,81.56
2023-04-17T19:52:20.853Z,81.44
2023-04-17T19:54:49.005Z,81.13
2023-04-17T19:57:17.947Z,80.68
2023-04-17T19:59:46.050Z,79.36
2023-04-17T20:02:16.050Z,78.24
2023-04-17T20:04:45.585Z,77.58
2023-04-17T20:07:13.808Z,77.17
2023-04-17T20:09:42.842Z,76.31
2023-04-17T20:12:11.119Z,76.21
2023-04-17T20:14:39.320Z,76.38
2023-04-17T20:17:07.738Z,76.12
2023-04-17T20:19:36.224Z,76.16
2023-04-17T20:22:04.322Z,75.88
2023-04-17T20:24:32.415Z,75.46
2023-04-17T20:27:02.035Z,75.17
2023-04-17T20:29:31.458Z,74.72
2023-04-17T20:32:00.769Z,74.52
2023-04-17T20:34:35.075Z,74.32
2023-04-17T20:37:03.192Z,74.27
2023-04-17T20:39:32.233Z,74.43
2023-04-17T20:42:02.302Z,74.48
2023-04-17T20:44:32.211Z,74.41
2023-04-17T20:47:00.338Z,74.88
2023-04-17T20:49:28.396Z,74.93
2023-04-17T20:51:57.026Z,74.94
2023-04-17T20:54:26.343Z,74.84
2023-04-17T20:56:54.482Z,74.88
2023-04-17T20:59:22.605Z,74.72
2023-04-17T21:01:52.463Z,74.87
2023-04-17T21:04:21.927Z,74.98
2023-04-17T21:06:50.364Z,74.46
2023-04-17T21:09:18.456Z,74.08
2023-04-17T21:11:47.767Z,73.82
2023-04-17T21:14:16.257Z,73.47
2023-04-17T21:16:45.564Z,73.20
2023-04-17T21:19:14.373Z,72.51
2023-04-17T21:21:42.489Z,72.28
2023-04-17T21:24:11.461Z,72.51
2023-04-17T21:26:39.771Z,72.39
2023-04-17T21:29:08.752Z,73.41
2023-04-17T21:31:36.856Z,74.08
2023-04-17T21:34:05.056Z,74.09
2023-04-17T21:36:33.334Z,73.84
2023-04-17T21:39:01.983Z,74.34
2023-04-17T21:41:32.042Z,73.75
2023-04-17T21:44:02.665Z,74.09
2023-04-17T21:46:30.786Z,74.14
2023-04-17T21:48:59.025Z,73.69
2023-04-17T21:51:27.412Z,73.43
2023-04-17T21:53:55.489Z,73.73
2023-04-17T21:56:24.187Z,73.78
2023-04-17T21:58:52.472Z,73.79
2023-04-17T22:01:20.636Z,73.73
2023-04-17T22:03:48.846Z,73.60
2023-04-17T22:06:16.910Z,73.47
2023-04-17T22:08:45.626Z,73.06
2023-04-17T22:11:13.698Z,73.35
2023-04-17T22:13:42.971Z,74.23
2023-04-17T22:16:11.017Z,73.95
2023-04-17T22:18:39.139Z,74.28
2023-04-17T22:21:07.587Z,74.54
2023-04-17T22:23:35.708Z,74.81
2023-04-17T22:26:03.950Z,74.34
2023-04-17T22:28:32.131Z,74.24
2023-04-17T22:31:00.818Z,74.82
2023-04-17T22:33:29.223Z,75.24
2023-04-17T22:35:57.444Z,75.52
2023-04-17T22:38:25.603Z,75.90
2023-04-17T22:40:54.814Z,75.11
2023-04-17T22:43:23.365Z,74.81
2023-04-17T22:45:51.582Z,75.57
2023-04-17T22:48:20.183Z,76.19
2023-04-17T22:50:49.353Z,76.95
2023-04-17T22:53:19.512Z,77.12
2023-04-17T22:55:47.726Z,76.65
2023-04-17T22:58:16.131Z,76.73
2023-04-17T23:00:44.231Z,77.33
2023-04-17T23:03:12.523Z,77.60
2023-04-17T23:05:41.087Z,77.28
2023-04-17T23:08:09.235Z,77.61
2023-04-17T23:10:37.412Z,77.37
2023-04-17T23:13:05.657Z,76.91
2023-04-17T23:15:34.099Z,77.64
2023-04-17T23:18:02.246Z,77.90
2023-04-17T23:20:30.467Z,77.97
2023-04-17T23:22:58.796Z,77.89
2023-04-17T23:25:26.871Z,78.41
2023-04-17T23:27:54.944Z,78.77
2023-04-17T23:30:23.192Z,78.84
2023-04-17T23:32:53.769Z,79.11
2023-04-17T23:35:22.268Z,79.30
2023-04-17T23:37:51.826Z,79.57
2023-04-17T23:40:20.014Z,79.67
2023-04-17T23:42:48.274Z,79.80
2023-04-17T23:45:16.496Z,79.81
2023-04-17T23:47:44.645Z,79.59
2023-04-17T23:50:12.872Z,79.51
2023-04-17T23:52:40.985Z,79.50
2023-04-17T23:55:09.240Z,79.66
2023-04-17T23:57:38.853Z,79.73
